createdAt,value
2023-02-12T00:00:08.253Z,5.10
2023-02-12T00:02:35.072Z,5.10
2023-02-12T00:05:01.786Z,5.10
2023-02-12T00:07:31.359Z,5.10
2023-02-12T00:09:58.028Z,5.20
2023-02-12T00:12:24.656Z,5.10
2023-02-12T00:14:51.386Z,5.10
2023-02-12T00:17:18.096Z,5.20
2023-02-12T00:19:44.900Z,5.10
2023-02-12T00:22:11.526Z,5.10
2023-02-12T00:24:38.231Z,5.20
2023-02-12T00:27:04.907Z,5.20
2023-02-12T00:29:31.521Z,5.10
2023-02-12T00:31:58.297Z,5.10
2023-02-12T00:34:25.012Z,5.10
2023-02-12T00:36:51.605Z,5.10
2023-02-12T00:39:18.314Z,5.10
2023-02-12T00:41:45.074Z,5.10
2023-02-12T00:44:11.704Z,5.10
2023-02-12T00:49:20.399Z,5.00
2023-02-12T00:51:47.096Z,5.00
2023-02-12T00:54:15.026Z,4.90
2023-02-12T00:56:41.935Z,4.90
2023-02-12T00:59:08.703Z,4.90
2023-02-12T01:01:35.544Z,4.90
2023-02-12T01:04:02.350Z,4.90
2023-02-12T01:06:29.067Z,4.90
2023-02-12T01:08:55.843Z,4.90
2023-02-12T01:11:22.534Z,4.90
2023-02-12T01:13:49.308Z,4.90
2023-02-12T01:16:20.499Z,4.90
2023-02-12T01:18:48.169Z,4.90
2023-02-12T01:21:16.266Z,5.00
2023-02-12T01:23:54.629Z,5.00
2023-02-12T01:26:22.536Z,5.00
2023-02-12T01:28:52.516Z,5.00
2023-02-12T01:31:21.660Z,5.00
2023-02-12T01:33:53.242Z,5.00
2023-02-12T01:36:20.744Z,5.00
2023-02-12T01:38:48.018Z,5.00
2023-02-12T01:41:27.157Z,5.00
2023-02-12T01:44:19.593Z,5.00
2023-02-12T01:46:48.171Z,5.10
2023-02-12T01:49:31.686Z,5.00
2023-02-12T01:52:05.666Z,5.10
2023-02-12T01:54:35.839Z,5.00
2023-02-12T01:57:26.256Z,5.00
2023-02-12T02:00:08.170Z,5.00
2023-02-12T02:02:36.311Z,5.00
2023-02-12T02:05:05.526Z,5.00
2023-02-12T02:07:32.317Z,5.00
2023-02-12T02:09:59.863Z,5.00
2023-02-12T02:12:46.138Z,4.90
2023-02-12T02:15:12.845Z,4.90
2023-02-12T02:18:17.744Z,4.90
2023-02-12T02:21:14.861Z,4.90
2023-02-12T02:23:59.618Z,4.90
2023-02-12T02:26:57.077Z,4.80
2023-02-12T02:29:27.085Z,4.70
2023-02-12T02:32:15.065Z,4.80
2023-02-12T02:35:00.539Z,4.80
2023-02-12T02:37:40.479Z,4.70
2023-02-12T02:40:10.304Z,4.70
2023-02-12T02:42:49.220Z,4.70
2023-02-12T02:45:35.818Z,4.70
2023-02-12T02:48:35.087Z,4.70
2023-02-12T02:51:23.783Z,4.60
2023-02-12T02:54:27.978Z,4.70
2023-02-12T02:57:18.138Z,4.70
2023-02-12T02:59:54.203Z,4.80
2023-02-12T03:02:35.129Z,4.80
2023-02-12T03:05:09.154Z,4.80
2023-02-12T03:08:03.081Z,4.70
2023-02-12T03:10:58.409Z,4.80
2023-02-12T03:13:31.397Z,4.80
2023-02-12T03:16:07.884Z,4.70
2023-02-12T03:18:42.687Z,4.70
2023-02-12T03:21:17.165Z,4.70
2023-02-12T03:24:19.383Z,4.80
2023-02-12T03:26:54.469Z,4.70
2023-02-12T03:29:21.149Z,4.70
2023-02-12T03:32:24.417Z,4.70
2023-02-12T03:34:56.399Z,4.80
2023-02-12T03:37:32.615Z,4.80
2023-02-12T03:41:00.461Z,4.80
2023-02-12T03:43:51.080Z,4.80
2023-02-12T03:46:33.658Z,4.90
2023-02-12T03:49:14.430Z,4.90
2023-02-12T03:51:44.591Z,4.90
2023-02-12T03:54:14.102Z,4.80
2023-02-12T03:56:52.266Z,4.80
2023-02-12T03:59:26.334Z,4.80
2023-02-12T04:01:55.585Z,4.80
2023-02-12T04:04:24.077Z,4.90
2023-02-12T04:06:54.819Z,4.90
2023-02-12T04:09:24.296Z,4.90
2023-02-12T04:12:09.750Z,4.90
2023-02-12T04:14:42.457Z,4.90
2023-02-12T04:17:40.681Z,5.00
2023-02-12T04:20:36.078Z,4.90
2023-02-12T04:23:16.626Z,4.80
2023-02-12T04:25:59.146Z,4.80
2023-02-12T04:28:38.408Z,4.80
2023-02-12T04:31:07.648Z,4.90
2023-02-12T04:33:48.999Z,4.90
2023-02-12T04:36:30.938Z,4.90
2023-02-12T04:39:06.662Z,4.90
2023-02-12T04:41:33.577Z,4.90
2023-02-12T04:44:26.342Z,4.80
2023-02-12T04:46:53.508Z,4.80
2023-02-12T04:49:22.498Z,4.80
2023-02-12T04:51:50.189Z,4.80
2023-02-12T04:54:18.905Z,4.80
2023-02-12T04:56:46.176Z,4.90
2023-02-12T04:59:13.656Z,4.90
2023-02-12T05:01:41.762Z,4.80
2023-02-12T05:04:10.685Z,4.90
2023-02-12T05:06:39.622Z,4.90
2023-02-12T05:09:07.675Z,4.90
2023-02-12T05:11:34.732Z,4.80
2023-02-12T05:14:01.749Z,4.90
2023-02-12T05:16:28.484Z,4.90
2023-02-12T05:18:55.306Z,4.90
2023-02-12T05:21:22.178Z,4.90
2023-02-12T05:23:49.219Z,4.80
2023-02-12T05:26:20.704Z,4.70
2023-02-12T05:28:57.724Z,4.70
2023-02-12T05:31:24.749Z,4.70
2023-02-12T05:33:51.517Z,4.70
2023-02-12T05:36:43.252Z,4.70
2023-02-12T05:39:11.023Z,4.70
2023-02-12T05:41:37.705Z,4.70
2023-02-12T05:47:12.614Z,4.70
2023-02-12T05:49:39.307Z,4.70
2023-02-12T05:52:16.771Z,4.70
2023-02-12T05:54:56.464Z,4.70
2023-02-12T05:57:23.159Z,4.70
2023-02-12T05:59:49.814Z,4.70
2023-02-12T06:02:16.500Z,4.60
2023-02-12T06:04:43.141Z,4.60
2023-02-12T06:07:09.790Z,4.60
2023-02-12T06:09:37.380Z,4.60
2023-02-12T06:12:04.425Z,4.60
2023-02-12T06:14:32.096Z,4.60
2023-02-12T06:16:58.896Z,4.60
2023-02-12T06:22:06.352Z,4.60
2023-02-12T06:24:33.176Z,4.60
2023-02-12T06:26:59.885Z,4.60
2023-02-12T06:29:26.508Z,4.50
2023-02-12T06:31:53.272Z,4.60
2023-02-12T06:34:19.991Z,4.50
2023-02-12T06:37:01.949Z,4.50
2023-02-12T06:39:28.607Z,4.50
2023-02-12T06:41:55.283Z,4.50
2023-02-12T06:44:21.953Z,4.50
2023-02-12T06:46:48.907Z,4.50
2023-02-12T06:49:16.603Z,4.50
2023-02-12T06:51:53.245Z,4.50
2023-02-12T06:54:19.943Z,4.50
2023-02-12T06:56:46.642Z,4.50
2023-02-12T06:59:27.193Z,4.60
2023-02-12T07:01:53.839Z,4.60
2023-02-12T07:04:21.615Z,4.70
2023-02-12T07:06:48.344Z,4.70
2023-02-12T07:09:17.053Z,4.80
2023-02-12T07:11:43.751Z,4.80
2023-02-12T07:14:17.083Z,4.80
2023-02-12T07:16:43.943Z,4.80
2023-02-12T07:19:13.467Z,4.90
2023-02-12T07:21:40.160Z,4.90
2023-02-12T07:24:07.571Z,4.90
2023-02-12T07:26:34.381Z,5.00
2023-02-12T07:29:12.353Z,5.00
2023-02-12T07:31:39.177Z,5.00
2023-02-12T07:34:05.976Z,4.90
2023-02-12T07:36:43.033Z,5.00
2023-02-12T07:39:11.742Z,5.00
2023-02-12T07:41:38.531Z,4.90
2023-02-12T07:44:10.097Z,5.00
2023-02-12T07:46:38.754Z,5.00
2023-02-12T07:49:08.125Z,5.10
2023-02-12T07:51:41.361Z,5.10
2023-02-12T07:54:08.283Z,5.20
2023-02-12T07:56:37.541Z,5.30
2023-02-12T07:59:07.606Z,5.30
2023-02-12T08:01:36.750Z,5.40
2023-02-12T08:04:09.568Z,5.60
2023-02-12T08:06:38.881Z,5.70
2023-02-12T08:09:17.265Z,5.70
2023-02-12T08:11:44.576Z,5.70
2023-02-12T08:14:13.140Z,5.80
2023-02-12T08:16:41.108Z,5.90
2023-02-12T08:19:18.113Z,6.00
2023-02-12T08:21:55.585Z,6.10
2023-02-12T08:24:23.382Z,6.10
2023-02-12T08:26:51.045Z,6.20
2023-02-12T08:29:24.126Z,6.20
2023-02-12T08:31:55.257Z,6.30
2023-02-12T08:34:24.562Z,6.50
2023-02-12T08:37:05.421Z,6.50
2023-02-12T08:39:32.383Z,6.60
2023-02-12T08:42:01.544Z,6.60
2023-02-12T08:44:36.552Z,6.40
2023-02-12T08:47:21.895Z,6.50
2023-02-12T08:49:57.047Z,6.40
2023-02-12T08:52:23.689Z,6.40
2023-02-12T08:54:50.461Z,6.30
2023-02-12T08:57:28.178Z,6.30
2023-02-12T08:59:54.877Z,6.40
2023-02-12T09:02:21.522Z,6.60
2023-02-12T09:04:54.128Z,6.50
2023-02-12T09:07:23.818Z,6.60
2023-02-12T09:09:50.440Z,6.60
2023-02-12T09:12:17.101Z,6.70
2023-02-12T09:14:49.737Z,6.70
2023-02-12T09:17:16.381Z,6.80
2023-02-12T09:19:43.023Z,6.60
2023-02-12T09:22:09.687Z,6.80
2023-02-12T09:24:37.474Z,6.80
2023-02-12T09:27:05.335Z,6.80
2023-02-12T09:29:35.014Z,6.80
2023-02-12T09:32:05.507Z,6.90
2023-02-12T09:34:37.115Z,7.00
2023-02-12T09:37:03.772Z,6.90
2023-02-12T09:39:30.736Z,6.90
2023-02-12T09:42:24.697Z,6.90
2023-02-12T09:45:07.034Z,6.90
2023-02-12T09:47:50.679Z,6.90
2023-02-12T09:50:32.845Z,6.80
2023-02-12T09:53:00.213Z,6.90
2023-02-12T09:55:31.442Z,7.00
2023-02-12T09:58:01.003Z,7.10
2023-02-12T10:00:31.687Z,7.00
2023-02-12T10:03:05.435Z,7.10
2023-02-12T10:05:39.402Z,7.10
2023-02-12T10:08:59.979Z,7.10
2023-02-12T10:11:53.100Z,7.40
2023-02-12T10:14:38.411Z,7.40
2023-02-12T10:17:22.734Z,7.40
2023-02-12T10:20:34.794Z,7.50
2023-02-12T10:23:04.482Z,7.40
2023-02-12T10:25:52.212Z,7.40
2023-02-12T10:28:32.821Z,7.40
2023-02-12T10:31:03.693Z,7.60
2023-02-12T10:33:46.139Z,7.60
2023-02-12T10:36:37.977Z,7.80
2023-02-12T10:39:35.195Z,8.00
2023-02-12T10:42:04.193Z,8.10
2023-02-12T10:44:31.868Z,8.30
2023-02-12T10:46:58.585Z,8.40
2023-02-12T10:49:25.567Z,8.40
2023-02-12T10:52:16.538Z,8.30
2023-02-12T10:54:45.883Z,7.90
2023-02-12T10:57:30.826Z,7.90
2023-02-12T11:00:33.640Z,8.10
2023-02-12T11:03:00.279Z,8.00
2023-02-12T11:05:30.034Z,8.10
2023-02-12T11:07:59.559Z,8.30
2023-02-12T11:10:31.981Z,8.40
2023-02-12T11:13:02.749Z,8.30
2023-02-12T11:15:47.929Z,8.50
2023-02-12T11:18:26.251Z,8.70
2023-02-12T11:21:01.087Z,8.60
2023-02-12T11:23:29.969Z,8.40
2023-02-12T11:26:06.510Z,8.30
2023-02-12T11:28:36.278Z,8.30
2023-02-12T11:31:14.300Z,8.40
2023-02-12T11:33:41.030Z,8.70
2023-02-12T11:36:25.814Z,8.60
2023-02-12T11:38:58.266Z,8.70
2023-02-12T11:41:38.897Z,8.70
2023-02-12T11:44:20.981Z,8.70
2023-02-12T11:46:55.605Z,8.30
2023-02-12T11:49:29.697Z,8.60
2023-02-12T11:51:57.786Z,8.60
2023-02-12T11:54:28.319Z,8.30
2023-02-12T11:56:57.929Z,8.60
2023-02-12T11:59:42.734Z,8.50
2023-02-12T12:02:22.972Z,8.10
2023-02-12T12:04:53.588Z,8.50
2023-02-12T12:07:30.273Z,8.50
2023-02-12T12:10:25.274Z,8.60
2023-02-12T12:12:56.857Z,8.30
2023-02-12T12:15:56.811Z,8.60
2023-02-12T12:19:03.623Z,8.70
2023-02-12T12:21:45.847Z,8.40
2023-02-12T12:24:20.649Z,8.20
2023-02-12T12:27:00.221Z,8.60
2023-02-12T12:29:38.576Z,8.50
2023-02-12T12:32:07.208Z,8.50
2023-02-12T12:34:34.050Z,8.60
2023-02-12T12:37:09.740Z,8.50
2023-02-12T12:39:52.381Z,8.40
2023-02-12T12:42:28.473Z,8.50
2023-02-12T12:45:22.606Z,8.60
2023-02-12T12:48:22.623Z,8.60
2023-02-12T12:51:16.312Z,8.60
2023-02-12T12:53:51.424Z,8.40
2023-02-12T12:56:42.315Z,8.20
2023-02-12T12:59:37.779Z,8.10
2023-02-12T13:02:36.517Z,8.00
2023-02-12T13:05:40.993Z,8.00
2023-02-12T13:08:19.683Z,8.20
2023-02-12T13:10:49.405Z,8.40
2023-02-12T13:13:39.488Z,8.30
2023-02-12T13:16:18.005Z,8.20
2023-02-12T13:19:26.023Z,8.00
2023-02-12T13:22:12.575Z,8.30
2023-02-12T13:24:49.836Z,8.20
2023-02-12T13:27:40.440Z,8.40
2023-02-12T13:30:18.416Z,8.60
2023-02-12T13:32:47.846Z,8.50
2023-02-12T13:35:23.473Z,8.40
2023-02-12T13:37:54.303Z,8.40
2023-02-12T13:40:26.604Z,8.40
2023-02-12T13:43:02.302Z,8.20
2023-02-12T13:46:06.939Z,8.10
2023-02-12T13:48:52.571Z,8.30
2023-02-12T13:51:40.332Z,8.50
2023-02-12T13:54:10.257Z,8.60
2023-02-12T13:56:44.950Z,8.30
2023-02-12T13:59:30.632Z,8.40
2023-02-12T14:02:06.754Z,8.30
2023-02-12T14:04:46.676Z,8.40
2023-02-12T14:07:16.668Z,8.30
2023-02-12T14:09:46.576Z,8.20
2023-02-12T14:12:25.431Z,8.20
2023-02-12T14:15:04.448Z,8.30
2023-02-12T14:17:31.118Z,8.20
2023-02-12T14:20:06.814Z,8.30
2023-02-12T14:22:33.405Z,8.20
2023-02-12T14:25:23.160Z,8.20
2023-02-12T14:27:58.404Z,8.10
2023-02-12T14:30:27.968Z,8.00
2023-02-12T14:33:06.618Z,7.90
2023-02-12T14:35:39.968Z,8.00
2023-02-12T14:38:10.229Z,8.00
2023-02-12T14:40:40.300Z,8.00
2023-02-12T14:43:28.597Z,7.90
2023-02-12T14:45:58.129Z,7.90
2023-02-12T14:48:50.891Z,7.90
2023-02-12T14:51:35.881Z,7.70
2023-02-12T14:54:11.311Z,7.80
2023-02-12T14:56:47.561Z,7.80
2023-02-12T14:59:21.379Z,7.80
2023-02-12T15:01:50.197Z,7.90
2023-02-12T15:04:24.643Z,7.90
2023-02-12T15:07:08.353Z,7.80
2023-02-12T15:09:57.019Z,7.80
2023-02-12T15:12:37.003Z,7.80
2023-02-12T15:15:25.713Z,7.70
2023-02-12T15:18:00.213Z,7.70
2023-02-12T15:20:34.863Z,7.70
2023-02-12T15:23:03.120Z,7.70
2023-02-12T15:25:32.472Z,7.70
2023-02-12T15:28:21.487Z,7.60
2023-02-12T15:30:48.660Z,7.50
2023-02-12T15:33:26.740Z,7.50
2023-02-12T15:35:53.577Z,7.40
2023-02-12T15:38:25.995Z,7.40
2023-02-12T15:40:57.974Z,7.40
2023-02-12T15:43:31.436Z,7.30
2023-02-12T15:45:58.277Z,7.30
2023-02-12T15:48:32.011Z,7.20
2023-02-12T15:51:07.800Z,7.20
2023-02-12T15:53:36.562Z,7.10
2023-02-12T15:56:04.374Z,7.00
2023-02-12T15:58:39.179Z,7.00
2023-02-12T16:01:06.816Z,6.90
2023-02-12T16:03:37.011Z,6.90
2023-02-12T16:06:11.633Z,6.80
2023-02-12T16:08:39.651Z,6.70
2023-02-12T16:11:17.089Z,6.60
2023-02-12T16:13:53.054Z,6.50
2023-02-12T16:16:21.836Z,6.40
2023-02-12T16:19:22.125Z,6.30
2023-02-12T16:22:16.478Z,6.20
2023-02-12T16:24:50.119Z,6.10
2023-02-12T16:27:27.490Z,6.00
2023-02-12T16:30:09.724Z,6.00
2023-02-12T16:32:42.463Z,5.90
2023-02-12T16:35:12.030Z,5.80
2023-02-12T16:37:42.606Z,5.70
2023-02-12T16:40:12.237Z,5.60
2023-02-12T16:43:26.668Z,5.50
2023-02-12T16:46:04.046Z,5.40
2023-02-12T16:48:41.997Z,5.30
2023-02-12T16:51:21.443Z,5.20
2023-02-12T16:53:50.023Z,5.10
2023-02-12T16:56:18.899Z,5.10
2023-02-12T16:58:48.425Z,5.00
2023-02-12T17:01:19.242Z,4.90
2023-02-12T17:03:47.678Z,4.80
2023-02-12T17:06:14.930Z,4.70
2023-02-12T17:08:41.696Z,4.70
2023-02-12T17:11:11.159Z,4.70
2023-02-12T17:13:43.490Z,4.70
2023-02-12T17:16:12.756Z,4.60
2023-02-12T17:18:41.306Z,4.50
2023-02-12T17:21:29.437Z,4.50
2023-02-12T17:23:56.222Z,4.50
2023-02-12T17:26:24.249Z,4.50
2023-02-12T17:28:51.072Z,4.40
2023-02-12T17:31:21.010Z,4.40
2023-02-12T17:33:47.748Z,4.40
2023-02-12T17:36:14.351Z,4.40
2023-02-12T17:38:41.045Z,4.30
2023-02-12T17:41:11.335Z,4.30
2023-02-12T17:43:38.189Z,4.30
2023-02-12T17:46:10.403Z,4.30
2023-02-12T17:48:37.227Z,4.20
2023-02-12T17:51:06.360Z,4.20
2023-02-12T17:53:33.088Z,4.20
2023-02-12T17:55:59.759Z,4.10
2023-02-12T17:58:26.505Z,4.10
2023-02-12T18:00:53.191Z,4.10
2023-02-12T18:03:19.912Z,4.10
2023-02-12T18:05:47.000Z,4.00
2023-02-12T18:08:13.777Z,4.00
2023-02-12T18:10:41.765Z,3.90
2023-02-12T18:13:09.241Z,3.90
2023-02-12T18:15:36.605Z,3.90
2023-02-12T18:18:03.665Z,3.80
2023-02-12T18:20:30.329Z,3.80
2023-02-12T18:22:59.695Z,3.70
2023-02-12T18:25:26.361Z,3.60
2023-02-12T18:27:53.003Z,3.60
2023-02-12T18:30:19.866Z,3.50
2023-02-12T18:32:46.851Z,3.50
2023-02-12T18:35:14.721Z,3.40
2023-02-12T18:37:43.271Z,3.40
2023-02-12T18:40:10.779Z,3.40
2023-02-12T18:42:37.471Z,3.30
2023-02-12T18:45:04.671Z,3.30
2023-02-12T18:47:31.393Z,3.30
2023-02-12T18:49:58.098Z,3.30
2023-02-12T18:52:25.321Z,3.20
2023-02-12T18:54:53.117Z,3.20
2023-02-12T18:57:20.152Z,3.20
2023-02-12T18:59:52.264Z,3.10
2023-02-12T19:02:19.066Z,3.10
2023-02-12T19:04:45.801Z,3.10
2023-02-12T19:07:12.536Z,3.10
2023-02-12T19:09:39.245Z,3.00
2023-02-12T19:12:06.957Z,3.10
2023-02-12T19:14:34.311Z,3.00
2023-02-12T19:17:01.109Z,3.00
2023-02-12T19:19:28.308Z,2.90
2023-02-12T19:21:54.975Z,2.90
2023-02-12T19:24:21.883Z,2.90
2023-02-12T19:26:53.835Z,2.80
2023-02-12T19:29:20.756Z,2.80
2023-02-12T19:31:47.509Z,2.80
2023-02-12T19:34:19.810Z,2.80
2023-02-12T19:36:48.069Z,2.80
2023-02-12T19:39:17.614Z,2.80
2023-02-12T19:41:46.723Z,2.80
2023-02-12T19:44:18.067Z,2.80
2023-02-12T19:46:46.801Z,2.80
2023-02-12T19:49:20.632Z,2.80
2023-02-12T19:51:48.003Z,2.80
2023-02-12T19:54:16.528Z,2.70
2023-02-12T19:56:43.435Z,2.80
2023-02-12T19:59:17.314Z,2.70
2023-02-12T20:01:44.668Z,2.70
2023-02-12T20:04:13.768Z,2.70
2023-02-12T20:06:41.940Z,2.70
2023-02-12T20:09:10.484Z,2.70
2023-02-12T20:11:38.444Z,2.60
2023-02-12T20:14:10.591Z,2.60
2023-02-12T20:16:39.024Z,2.60
2023-02-12T20:19:16.641Z,2.70
2023-02-12T20:21:43.899Z,2.70
2023-02-12T20:24:10.865Z,2.70
2023-02-12T20:26:38.909Z,2.70
2023-02-12T20:29:05.857Z,2.70
2023-02-12T20:31:35.977Z,2.70
2023-02-12T20:34:08.032Z,2.70
2023-02-12T20:36:36.958Z,2.70
2023-02-12T20:39:05.481Z,2.60
2023-02-12T20:41:32.346Z,2.60
2023-02-12T20:44:01.018Z,2.60
2023-02-12T20:46:27.936Z,2.60
2023-02-12T20:48:55.111Z,2.60
2023-02-12T20:51:25.060Z,2.50
2023-02-12T20:53:53.969Z,2.50
2023-02-12T20:56:23.863Z,2.50
2023-02-12T20:58:51.293Z,2.50
2023-02-12T21:01:34.618Z,2.40
2023-02-12T21:04:10.056Z,2.40
2023-02-12T21:06:39.935Z,2.30
2023-02-12T21:09:09.708Z,2.30
2023-02-12T21:11:37.482Z,2.20
2023-02-12T21:14:20.874Z,2.20
2023-02-12T21:16:48.498Z,2.10
2023-02-12T21:19:15.369Z,2.20
2023-02-12T21:21:45.095Z,2.10
2023-02-12T21:24:15.018Z,2.10
2023-02-12T21:26:41.856Z,2.10
2023-02-12T21:29:08.545Z,2.10
2023-02-12T21:31:38.096Z,2.10
2023-02-12T21:34:06.849Z,2.10
2023-02-12T21:36:36.405Z,2.10
2023-02-12T21:39:05.804Z,2.00
2023-02-12T21:41:35.620Z,2.00
2023-02-12T21:44:07.324Z,2.10
2023-02-12T21:46:35.266Z,2.10
2023-02-12T21:49:03.240Z,2.00
2023-02-12T21:51:32.916Z,2.10
2023-02-12T21:54:03.867Z,2.10
2023-02-12T21:56:30.921Z,2.10
2023-02-12T21:59:00.859Z,2.00
2023-02-12T22:01:33.331Z,2.00
2023-02-12T22:04:04.696Z,2.00
2023-02-12T22:06:31.987Z,2.00
2023-02-12T22:09:05.297Z,2.00
2023-02-12T22:11:32.257Z,1.90
2023-02-12T22:13:58.896Z,1.90
2023-02-12T22:16:27.408Z,1.90
2023-02-12T22:18:57.231Z,2.00
2023-02-12T22:21:25.507Z,2.00
2023-02-12T22:23:52.966Z,2.00
2023-02-12T22:26:26.481Z,2.00
2023-02-12T22:28:56.187Z,2.00
2023-02-12T22:31:29.173Z,2.00
2023-02-12T22:34:01.723Z,2.00
2023-02-12T22:36:29.303Z,2.00
2023-02-12T22:39:00.335Z,1.90
2023-02-12T22:41:28.155Z,1.90
2023-02-12T22:43:55.392Z,1.90
2023-02-12T22:46:22.130Z,1.90
2023-02-12T22:48:48.749Z,1.90
2023-02-12T22:51:27.792Z,1.90
2023-02-12T22:53:56.101Z,1.90
2023-02-12T22:56:25.600Z,1.80
2023-02-12T22:59:00.494Z,1.80
2023-02-12T23:01:28.192Z,1.80
2023-02-12T23:03:55.554Z,1.80
2023-02-12T23:06:27.866Z,1.70
2023-02-12T23:08:59.649Z,1.70
2023-02-12T23:11:28.223Z,1.70
2023-02-12T23:13:55.204Z,1.60
2023-02-12T23:16:21.976Z,1.60
2023-02-12T23:18:48.803Z,1.60
2023-02-12T23:21:15.717Z,1.60
2023-02-12T23:23:42.456Z,1.60
2023-02-12T23:26:14.493Z,1.60
2023-02-12T23:28:41.314Z,1.60
2023-02-12T23:31:08.099Z,1.60
2023-02-12T23:33:34.820Z,1.60
2023-02-12T23:36:01.532Z,1.60
2023-02-12T23:38:28.277Z,1.60
2023-02-12T23:40:54.991Z,1.70
2023-02-12T23:43:21.819Z,1.70
2023-02-12T23:45:48.520Z,1.70
2023-02-12T23:48:15.308Z,1.70
2023-02-12T23:50:42.381Z,1.70
2023-02-12T23:53:20.770Z,1.60
2023-02-12T23:55:51.025Z,1.60
2023-02-12T23:58:18.903Z,1.60
